Time;durP1;ratioP1;P1;durP2;ratioP2;P2;SDS_P1;SDS_P2;PMS_P1;PMS_P2;Temp;Humidity;BMP_temperature;BMP_pressure;BME280_temperature;BME280_humidity;BME280_pressure;Samples;Min_cycle;Max_cycle;Signal;HPM_P1;HPM_P2
2023/07/11 00:01:18;;;;;;;9.10;3.00;;;;;;;;;;5028130;28;20214;-69
2023/07/11 00:03:43;;;;;;;7.65;3.30;;;;;;;;;;5020078;28;20202;-69
2023/07/11 00:06:17;;;;;;;10.40;3.65;;;;;;;;;;5028399;28;20186;-69
2023/07/11 00:08:42;;;;;;;6.53;3.38;;;;;;;;;;5024371;28;20270;-69
2023/07/11 00:11:10;;;;;;;10.00;3.50;;;;;;;;;;5028851;28;20781;-69
2023/07/11 00:13:36;;;;;;;7.85;3.55;;;;;;;;;;5017921;28;20545;-69
2023/07/11 00:16:06;;;;;;;9.27;3.60;;;;;;;;;;5017073;28;20193;-68
2023/07/11 00:18:32;;;;;;;9.38;3.33;;;;;;;;;;5019197;28;20183;-68
2023/07/11 00:20:57;;;;;;;12.02;3.50;;;;;;;;;;5027767;28;20224;-68
2023/07/11 00:23:23;;;;;;;6.95;3.33;;;;;;;;;;5021412;28;20211;-69
2023/07/11 00:25:49;;;;;;;7.78;3.75;;;;;;;;;;5028013;28;20355;-69
2023/07/11 00:28:14;;;;;;;7.95;3.47;;;;;;;;;;5018006;28;20633;-69
2023/07/11 00:30:43;;;;;;;8.40;3.80;;;;;;;;;;5028887;28;20198;-69
2023/07/11 00:33:09;;;;;;;7.78;3.45;;;;;;;;;;5027155;28;20189;-69
2023/07/11 00:35:39;;;;;;;7.10;3.92;;;;;;;;;;5028448;28;20190;-69
2023/07/11 00:38:05;;;;;;;11.30;4.28;;;;;;;;;;5026501;28;20692;-69
2023/07/11 00:40:30;;;;;;;5.63;3.47;;;;;;;;;;5019721;28;20332;-69
2023/07/11 00:42:59;;;;;;;7.30;3.80;;;;;;;;;;5016313;28;20279;-69
2023/07/11 00:45:58;;;;;;;7.75;4.30;;;;;;;;;;5027191;28;20268;-69
2023/07/11 00:48:23;;;;;;;8.10;3.50;;;;;;;;;;5025183;28;20277;-69
2023/07/11 00:50:54;;;;;;;12.95;3.75;;;;;;;;;;5028607;28;20745;-69
2023/07/11 00:53:20;;;;;;;6.85;3.83;;;;;;;;;;5017160;28;20534;-69
2023/07/11 00:55:45;;;;;;;10.32;3.90;;;;;;;;;;5019314;28;20190;-69
2023/07/11 00:58:14;;;;;;;8.15;3.97;;;;;;;;;;5027813;28;20591;-69
2023/07/11 01:00:40;;;;;;;10.25;3.95;;;;;;;;;;5027686;28;20665;-69
2023/07/11 01:03:06;;;;;;;9.68;4.88;;;;;;;;;;5021218;28;20190;-69
2023/07/11 01:05:32;;;;;;;12.07;4.28;;;;;;;;;;5025572;28;20555;-69
2023/07/11 01:07:57;;;;;;;8.85;4.00;;;;;;;;;;5027110;28;20264;-69
2023/07/11 01:10:22;;;;;;;11.00;4.47;;;;;;;;;;5023851;28;20190;-71
2023/07/11 01:12:49;;;;;;;8.48;3.72;;;;;;;;;;5025162;28;20262;-69
2023/07/11 01:15:15;;;;;;;9.23;4.20;;;;;;;;;;5023263;28;20201;-69
2023/07/11 01:17:41;;;;;;;10.73;3.92;;;;;;;;;;5028437;28;20302;-69
2023/07/11 01:20:09;;;;;;;6.38;3.67;;;;;;;;;;5029822;28;20348;-69
2023/07/11 01:22:36;;;;;;;7.00;3.97;;;;;;;;;;5025697;28;20253;-69
2023/07/11 01:25:09;;;;;;;6.20;3.75;;;;;;;;;;5032062;28;20193;-69
2023/07/11 01:27:35;;;;;;;10.02;3.92;;;;;;;;;;5031832;28;20491;-69
2023/07/11 01:30:05;;;;;;;8.93;3.83;;;;;;;;;;5030508;28;20194;-69
2023/07/11 01:32:31;;;;;;;10.93;4.47;;;;;;;;;;5025880;28;20193;-69
2023/07/11 01:34:57;;;;;;;7.28;3.75;;;;;;;;;;5025462;28;20190;-69
2023/07/11 01:37:22;;;;;;;9.70;4.30;;;;;;;;;;5031305;28;20209;-69
2023/07/11 01:39:47;;;;;;;9.40;4.20;;;;;;;;;;5019475;28;20190;-71
2023/07/11 01:42:13;;;;;;;11.90;4.30;;;;;;;;;;5022297;28;20214;-70
2023/07/11 01:44:38;;;;;;;7.03;4.30;;;;;;;;;;5026644;28;20556;-70
2023/07/11 01:47:05;;;;;;;11.18;3.95;;;;;;;;;;5020849;28;20308;-69
2023/07/11 01:49:31;;;;;;;7.25;4.10;;;;;;;;;;5030079;28;20198;-70
2023/07/11 01:52:15;;;;;;;9.38;4.15;;;;;;;;;;5021099;28;20197;-69
2023/07/11 01:54:40;;;;;;;8.07;4.18;;;;;;;;;;5023564;28;20280;-69
2023/07/11 01:57:09;;;;;;;11.77;4.40;;;;;;;;;;5030512;28;20261;-69
2023/07/11 01:59:35;;;;;;;10.63;4.50;;;;;;;;;;5029991;28;20210;-69
2023/07/11 02:02:01;;;;;;;8.15;4.50;;;;;;;;;;5029548;28;20336;-69
2023/07/11 02:04:27;;;;;;;10.73;4.55;;;;;;;;;;5021070;28;20282;-69
2023/07/11 02:06:52;;;;;;;10.32;4.40;;;;;;;;;;5024429;28;20195;-69
2023/07/11 02:09:20;;;;;;;11.80;4.32;;;;;;;;;;5020628;28;20568;-69
2023/07/11 02:11:45;;;;;;;8.07;4.32;;;;;;;;;;5024501;28;20662;-69
2023/07/11 02:14:13;;;;;;;9.48;3.97;;;;;;;;;;5021138;28;20222;-69
2023/07/11 02:16:39;;;;;;;8.93;3.85;;;;;;;;;;5025349;28;20196;-69
2023/07/11 02:19:05;;;;;;;5.32;3.35;;;;;;;;;;5030041;28;20194;-70
2023/07/11 02:21:30;;;;;;;8.73;3.70;;;;;;;;;;5030632;28;20214;-69
2023/07/11 02:23:55;;;;;;;10.32;3.50;;;;;;;;;;5025736;28;20654;-69
2023/07/11 02:26:22;;;;;;;11.85;3.88;;;;;;;;;;5019740;28;20198;-69
2023/07/11 02:28:48;;;;;;;8.80;3.55;;;;;;;;;;5027955;28;20286;-69
2023/07/11 02:31:14;;;;;;;8.50;4.18;;;;;;;;;;5029444;28;20650;-69
2023/07/11 02:33:39;;;;;;;11.05;3.67;;;;;;;;;;5030116;28;20198;-69
2023/07/11 02:36:05;;;;;;;8.02;3.50;;;;;;;;;;5018427;28;20644;-69
2023/07/11 02:38:30;;;;;;;9.15;3.72;;;;;;;;;;5029698;28;20206;-69
2023/07/11 02:40:56;;;;;;;8.73;3.95;;;;;;;;;;5023796;28;20639;-69
2023/07/11 02:43:21;;;;;;;8.88;3.78;;;;;;;;;;5026774;28;20237;-69
2023/07/11 02:45:47;;;;;;;9.55;3.65;;;;;;;;;;5029796;28;20190;-69
2023/07/11 02:48:13;;;;;;;10.52;3.67;;;;;;;;;;5029616;28;20277;-69
2023/07/11 02:50:38;;;;;;;6.57;3.67;;;;;;;;;;5029905;28;20384;-69
2023/07/11 02:53:04;;;;;;;9.57;3.70;;;;;;;;;;5023984;28;20230;-70
2023/07/11 02:55:29;;;;;;;8.98;4.00;;;;;;;;;;5030298;28;20203;-69
2023/07/11 02:57:54;;;;;;;7.57;3.47;;;;;;;;;;5029900;28;20291;-70
2023/07/11 03:00:20;;;;;;;11.93;3.45;;;;;;;;;;5028929;28;20238;-70
2023/07/11 03:02:45;;;;;;;8.48;4.13;;;;;;;;;;5023995;28;20768;-70
2023/07/11 03:05:11;;;;;;;8.40;3.45;;;;;;;;;;5027052;28;20194;-70
2023/07/11 03:07:36;;;;;;;7.65;3.75;;;;;;;;;;5026630;28;20191;-71
2023/07/11 03:10:02;;;;;;;6.60;3.35;;;;;;;;;;5020399;28;20193;-70
2023/07/11 03:12:27;;;;;;;8.32;3.70;;;;;;;;;;5027057;28;20189;-70
2023/07/11 03:14:53;;;;;;;8.95;3.60;;;;;;;;;;5022024;28;20194;-70
2023/07/11 03:17:18;;;;;;;12.35;4.28;;;;;;;;;;5028022;28;20195;-70
2023/07/11 03:19:43;;;;;;;7.13;3.58;;;;;;;;;;5022381;28;20201;-70
2023/07/11 03:22:09;;;;;;;11.98;4.20;;;;;;;;;;5027185;28;20198;-70
2023/07/11 03:24:35;;;;;;;10.85;4.13;;;;;;;;;;5015866;28;20203;-70
2023/07/11 03:27:01;;;;;;;7.03;3.38;;;;;;;;;;5022166;28;20633;-70
2023/07/11 03:29:26;;;;;;;8.80;3.65;;;;;;;;;;5023497;28;20197;-70
2023/07/11 03:31:52;;;;;;;7.72;4.00;;;;;;;;;;5026937;28;20281;-69
2023/07/11 03:34:17;;;;;;;7.47;3.47;;;;;;;;;;5012935;28;20575;-69
2023/07/11 03:36:42;;;;;;;7.03;3.75;;;;;;;;;;5019224;28;20245;-69
2023/07/11 03:39:08;;;;;;;9.82;3.60;;;;;;;;;;5028946;28;20679;-69
2023/07/11 03:41:33;;;;;;;7.75;3.58;;;;;;;;;;5022404;28;20237;-69
2023/07/11 03:44:00;;;;;;;4.88;3.75;;;;;;;;;;5028123;28;20186;-69
2023/07/11 03:46:25;;;;;;;11.73;4.18;;;;;;;;;;5029062;28;20178;-69
2023/07/11 03:48:53;;;;;;;6.90;3.28;;;;;;;;;;5028559;28;20255;-69
2023/07/11 03:51:19;;;;;;;11.70;3.67;;;;;;;;;;5024954;28;20584;-70
2023/07/11 03:53:46;;;;;;;8.25;3.90;;;;;;;;;;5028015;28;20190;-69
2023/07/11 03:56:11;;;;;;;5.70;3.58;;;;;;;;;;5024372;28;20653;-69
2023/07/11 03:58:36;;;;;;;8.48;3.67;;;;;;;;;;5029530;28;20229;-69
2023/07/11 04:01:02;;;;;;;10.15;3.70;;;;;;;;;;5016256;28;20590;-68
2023/07/11 04:03:27;;;;;;;9.60;3.78;;;;;;;;;;5018683;28;20202;-69
2023/07/11 04:05:54;;;;;;;5.63;3.60;;;;;;;;;;5029056;28;20577;-69
2023/07/11 04:08:19;;;;;;;10.00;3.30;;;;;;;;;;5025371;28;20760;-69
2023/07/11 04:10:45;;;;;;;11.73;3.58;;;;;;;;;;5029118;28;20272;-69
2023/07/11 04:13:10;;;;;;;8.07;3.63;;;;;;;;;;5013507;28;20541;-68
2023/07/11 04:15:35;;;;;;;10.50;3.65;;;;;;;;;;5021868;28;20198;-68
2023/07/11 04:18:01;;;;;;;8.02;3.63;;;;;;;;;;5029021;28;20194;-69
2023/07/11 04:20:26;;;;;;;7.18;3.47;;;;;;;;;;5021360;28;20186;-68
2023/07/11 04:22:51;;;;;;;8.35;4.10;;;;;;;;;;5027610;28;20253;-68
2023/07/11 04:25:17;;;;;;;11.95;3.83;;;;;;;;;;5027845;28;20197;-69
2023/07/11 04:27:42;;;;;;;7.88;3.75;;;;;;;;;;5027785;28;20198;-69
2023/07/11 04:30:08;;;;;;;9.13;4.07;;;;;;;;;;5022357;28;20310;-69
2023/07/11 04:32:34;;;;;;;8.82;3.70;;;;;;;;;;5024869;28;20193;-69
2023/07/11 04:34:59;;;;;;;6.75;3.60;;;;;;;;;;5017903;28;20616;-69
2023/07/11 04:37:24;;;;;;;6.65;3.72;;;;;;;;;;5028806;28;20200;-69
2023/07/11 04:39:50;;;;;;;7.60;3.58;;;;;;;;;;5021216;28;20195;-70
2023/07/11 04:42:15;;;;;;;6.95;3.22;;;;;;;;;;5019659;28;20283;-69
2023/07/11 04:44:41;;;;;;;7.70;3.63;;;;;;;;;;5027411;28;20676;-69
2023/07/11 04:47:06;;;;;;;10.27;3.47;;;;;;;;;;5027763;28;20190;-69
2023/07/11 04:49:32;;;;;;;6.50;3.50;;;;;;;;;;5027920;28;20190;-68
2023/07/11 04:51:57;;;;;;;10.43;4.07;;;;;;;;;;5028267;28;20680;-68
2023/07/11 04:54:22;;;;;;;10.02;4.00;;;;;;;;;;5015077;28;20242;-68
2023/07/11 04:56:55;;;;;;;10.98;3.33;;;;;;;;;;5027408;28;20283;-69
2023/07/11 04:59:21;;;;;;;7.03;3.10;;;;;;;;;;5027429;28;20189;-68
2023/07/11 05:01:46;;;;;;;6.72;3.25;;;;;;;;;;5026293;28;20224;-68
2023/07/11 05:04:12;;;;;;;10.00;3.20;;;;;;;;;;5020476;28;20202;-69
2023/07/11 05:06:37;;;;;;;7.13;3.05;;;;;;;;;;5022263;28;20190;-68
2023/07/11 05:09:03;;;;;;;8.13;3.47;;;;;;;;;;5023858;28;20338;-68
2023/07/11 05:11:28;;;;;;;5.53;2.90;;;;;;;;;;5024791;28;20401;-68
2023/07/11 05:13:53;;;;;;;6.65;3.47;;;;;;;;;;5018201;28;20198;-68
2023/07/11 05:16:21;;;;;;;6.43;3.40;;;;;;;;;;5025951;28;20198;-68
2023/07/11 05:18:48;;;;;;;6.40;2.90;;;;;;;;;;5026793;28;20229;-67
2023/07/11 05:21:16;;;;;;;5.95;2.97;;;;;;;;;;5025892;28;20237;-66
2023/07/11 05:23:41;;;;;;;6.82;2.85;;;;;;;;;;5022883;28;20240;-67
2023/07/11 05:26:06;;;;;;;6.18;3.25;;;;;;;;;;5021646;28;20213;-68
2023/07/11 05:28:32;;;;;;;12.57;3.22;;;;;;;;;;5025932;28;20193;-67
2023/07/11 05:31:01;;;;;;;10.02;3.38;;;;;;;;;;5026936;28;20201;-67
2023/07/11 05:33:27;;;;;;;9.90;3.72;;;;;;;;;;5026240;28;20696;-66
2023/07/11 05:36:05;;;;;;;9.50;3.25;;;;;;;;;;5020438;28;20190;-68
2023/07/11 05:38:32;;;;;;;9.05;2.88;;;;;;;;;;5026814;28;20261;-66
2023/07/11 05:40:58;;;;;;;7.88;3.08;;;;;;;;;;5018005;28;20595;-68
2023/07/11 05:43:24;;;;;;;6.95;3.17;;;;;;;;;;5024062;28;20748;-67
2023/07/11 05:45:49;;;;;;;9.60;2.80;;;;;;;;;;5025269;28;20248;-68
2023/07/11 05:48:15;;;;;;;6.68;3.33;;;;;;;;;;5024745;28;20190;-68
2023/07/11 05:50:40;;;;;;;11.18;3.42;;;;;;;;;;5020834;28;20202;-68
2023/07/11 05:53:06;;;;;;;6.30;3.22;;;;;;;;;;5024302;28;20190;-69
2023/07/11 05:55:31;;;;;;;7.03;3.05;;;;;;;;;;5025851;28;20688;-66
2023/07/11 05:57:56;;;;;;;8.20;3.15;;;;;;;;;;5025987;28;20205;-67
2023/07/11 06:00:22;;;;;;;6.28;3.05;;;;;;;;;;5021943;28;20217;-66
2023/07/11 06:02:47;;;;;;;8.20;3.80;;;;;;;;;;5016501;28;20252;-67
2023/07/11 06:05:13;;;;;;;8.25;2.97;;;;;;;;;;5023331;28;20207;-68
2023/07/11 06:07:39;;;;;;;8.55;3.42;;;;;;;;;;5023751;28;20677;-68
2023/07/11 06:10:05;;;;;;;7.15;3.15;;;;;;;;;;5027156;28;20192;-67
2023/07/11 06:12:30;;;;;;;6.57;3.40;;;;;;;;;;5021384;28;20293;-68
2023/07/11 06:14:56;;;;;;;9.68;3.42;;;;;;;;;;5027445;28;20641;-66
2023/07/11 06:17:21;;;;;;;9.57;3.70;;;;;;;;;;5018542;28;20273;-67
2023/07/11 06:19:47;;;;;;;6.15;3.35;;;;;;;;;;5025490;28;20638;-67
2023/07/11 06:22:12;;;;;;;8.32;3.45;;;;;;;;;;5030270;28;20625;-66
2023/07/11 06:24:38;;;;;;;7.00;3.10;;;;;;;;;;5025362;28;20189;-66
2023/07/11 06:27:04;;;;;;;9.40;3.72;;;;;;;;;;5022811;28;20186;-66
2023/07/11 06:29:30;;;;;;;10.50;3.42;;;;;;;;;;5016559;28;20190;-68
2023/07/11 06:31:56;;;;;;;7.93;3.30;;;;;;;;;;5025259;28;20264;-66
2023/07/11 06:34:22;;;;;;;9.18;3.63;;;;;;;;;;5016506;28;20557;-65
2023/07/11 06:36:47;;;;;;;5.95;3.30;;;;;;;;;;5029105;28;20202;-68
2023/07/11 06:39:13;;;;;;;8.32;3.38;;;;;;;;;;5028337;28;20190;-67
2023/07/11 06:41:38;;;;;;;10.35;3.42;;;;;;;;;;5022456;28;20321;-67
2023/07/11 06:44:06;;;;;;;9.57;3.55;;;;;;;;;;5028790;28;20506;-67
2023/07/11 06:46:34;;;;;;;9.50;3.60;;;;;;;;;;5027103;28;20205;-67
2023/07/11 06:48:59;;;;;;;8.73;3.30;;;;;;;;;;5025444;28;20190;-67
2023/07/11 06:51:24;;;;;;;7.75;3.15;;;;;;;;;;5022858;28;20190;-67
2023/07/11 06:53:50;;;;;;;9.93;3.75;;;;;;;;;;5020000;28;20198;-67
2023/07/11 06:56:16;;;;;;;7.32;3.47;;;;;;;;;;5029359;28;20212;-67
2023/07/11 06:58:41;;;;;;;7.72;3.40;;;;;;;;;;5029367;28;20182;-67
2023/07/11 07:01:06;;;;;;;8.32;3.58;;;;;;;;;;5024878;28;20221;-68
2023/07/11 07:03:33;;;;;;;6.70;3.08;;;;;;;;;;5029123;28;20182;-67
2023/07/11 07:06:05;;;;;;;8.43;2.85;;;;;;;;;;5024307;28;20191;-67
2023/07/11 07:08:31;;;;;;;9.13;2.85;;;;;;;;;;5029211;28;20181;-66
2023/07/11 07:10:56;;;;;;;10.23;3.60;;;;;;;;;;5028933;28;20680;-68
2023/07/11 07:13:23;;;;;;;8.07;3.42;;;;;;;;;;5023546;28;20193;-65
2023/07/11 07:15:51;;;;;;;7.80;3.13;;;;;;;;;;5029133;28;20206;-66
2023/07/11 07:18:17;;;;;;;4.25;2.92;;;;;;;;;;5029014;28;20261;-65
2023/07/11 07:20:46;;;;;;;8.75;3.30;;;;;;;;;;5027843;28;20293;-65
2023/07/11 07:23:12;;;;;;;7.93;2.72;;;;;;;;;;5028938;28;20272;-66
2023/07/11 07:25:39;;;;;;;5.13;3.05;;;;;;;;;;5025877;28;20861;-65
2023/07/11 07:28:04;;;;;;;8.15;2.80;;;;;;;;;;5029244;28;20700;-65
2023/07/11 07:30:30;;;;;;;9.15;3.35;;;;;;;;;;5028451;28;20182;-66
2023/07/11 07:32:55;;;;;;;6.53;2.72;;;;;;;;;;5024258;28;20193;-66
2023/07/11 07:35:21;;;;;;;5.90;2.70;;;;;;;;;;5026625;28;20190;-67
2023/07/11 07:37:47;;;;;;;6.32;2.80;;;;;;;;;;5025186;28;20231;-66
2023/07/11 07:40:13;;;;;;;10.35;3.08;;;;;;;;;;5028317;28;20236;-65
2023/07/11 07:42:38;;;;;;;9.57;3.17;;;;;;;;;;5024111;28;20250;-68
2023/07/11 07:45:04;;;;;;;7.90;3.05;;;;;;;;;;5027686;28;20194;-66
2023/07/11 07:47:29;;;;;;;4.57;2.45;;;;;;;;;;5024291;28;20273;-66
2023/07/11 07:49:55;;;;;;;7.45;2.92;;;;;;;;;;5028046;28;20243;-66
2023/07/11 07:52:21;;;;;;;5.57;2.75;;;;;;;;;;5028139;28;20201;-66
2023/07/11 07:54:46;;;;;;;8.88;2.70;;;;;;;;;;5028748;28;20190;-67
2023/07/11 07:57:12;;;;;;;6.85;2.97;;;;;;;;;;5024061;28;20190;-66
2023/07/11 07:59:37;;;;;;;7.20;2.72;;;;;;;;;;5024668;28;20202;-66
2023/07/11 08:02:02;;;;;;;8.07;2.67;;;;;;;;;;5019186;28;20570;-68
2023/07/11 08:04:30;;;;;;;9.48;2.92;;;;;;;;;;5027504;28;20228;-67
2023/07/11 08:06:55;;;;;;;3.88;2.38;;;;;;;;;;5014894;28;20720;-66
2023/07/11 08:09:20;;;;;;;9.00;3.08;;;;;;;;;;5021420;28;20198;-66
2023/07/11 08:11:46;;;;;;;8.23;2.67;;;;;;;;;;5025204;28;20189;-65
2023/07/11 08:14:11;;;;;;;6.70;2.88;;;;;;;;;;5018455;28;20195;-67
2023/07/11 08:16:38;;;;;;;7.90;2.88;;;;;;;;;;5026938;28;20186;-67
2023/07/11 08:19:04;;;;;;;8.40;2.75;;;;;;;;;;5027025;28;20280;-67
2023/07/11 08:21:30;;;;;;;4.88;2.50;;;;;;;;;;5021529;28;20247;-67
2023/07/11 08:23:55;;;;;;;7.30;2.95;;;;;;;;;;5027745;28;20281;-66
2023/07/11 08:26:22;;;;;;;6.93;2.83;;;;;;;;;;5023627;28;20353;-66
2023/07/11 08:28:49;;;;;;;7.43;2.65;;;;;;;;;;5023401;28;20194;-66
2023/07/11 08:31:14;;;;;;;8.40;2.78;;;;;;;;;;5016537;28;20197;-67
2023/07/11 08:33:40;;;;;;;8.10;2.75;;;;;;;;;;5028421;28;20598;-66
2023/07/11 08:36:05;;;;;;;5.78;2.80;;;;;;;;;;5014159;28;20201;-68
2023/07/11 08:38:31;;;;;;;7.22;2.53;;;;;;;;;;5016109;28;20857;-68
2023/07/11 08:40:56;;;;;;;7.00;2.75;;;;;;;;;;5025126;28;20308;-67
2023/07/11 08:43:29;;;;;;;9.63;2.92;;;;;;;;;;5021340;28;20665;-67
2023/07/11 08:46:01;;;;;;;9.77;2.65;;;;;;;;;;5023810;28;20666;-69
2023/07/11 08:48:36;;;;;;;11.00;3.03;;;;;;;;;;5018473;28;20221;-67
2023/07/11 08:51:17;;;;;;;10.40;3.25;;;;;;;;;;5026305;28;20461;-67
2023/07/11 08:53:48;;;;;;;8.02;2.65;;;;;;;;;;5020752;28;20559;-68
2023/07/11 08:56:28;;;;;;;11.65;2.65;;;;;;;;;;5025569;28;20178;-67
2023/07/11 08:58:57;;;;;;;6.85;2.40;;;;;;;;;;5028375;28;20551;-67
2023/07/11 09:01:51;;;;;;;7.50;2.67;;;;;;;;;;5024193;28;20446;-67
2023/07/11 09:04:21;;;;;;;5.90;2.30;;;;;;;;;;5028391;28;20202;-67
2023/07/11 09:06:53;;;;;;;6.22;2.75;;;;;;;;;;5028632;28;20680;-67
2023/07/11 09:09:18;;;;;;;7.13;2.70;;;;;;;;;;5026719;28;20285;-67
2023/07/11 09:12:07;;;;;;;7.45;2.65;;;;;;;;;;5027518;28;20194;-69
2023/07/11 09:14:37;;;;;;;9.80;3.00;;;;;;;;;;5014180;28;20522;-67
2023/07/11 09:17:14;;;;;;;9.07;2.60;;;;;;;;;;5027641;28;20190;-66
2023/07/11 09:20:11;;;;;;;10.30;2.70;;;;;;;;;;5028108;28;20185;-70
2023/07/11 09:23:18;;;;;;;10.60;2.92;;;;;;;;;;5027725;28;20224;-67
2023/07/11 09:25:45;;;;;;;7.88;2.47;;;;;;;;;;5025065;28;20226;-68
2023/07/11 09:28:27;;;;;;;9.20;2.60;;;;;;;;;;5021504;28;20268;-66
2023/07/11 09:30:58;;;;;;;10.02;2.63;;;;;;;;;;5019988;28;20202;-70
2023/07/11 09:33:29;;;;;;;8.27;2.28;;;;;;;;;;5028327;28;20191;-69
2023/07/11 09:35:55;;;;;;;8.38;2.38;;;;;;;;;;5025549;28;20248;-69
2023/07/11 09:38:38;;;;;;;7.15;2.20;;;;;;;;;;5012132;28;20643;-69
2023/07/11 09:41:22;;;;;;;9.60;2.90;;;;;;;;;;5018229;28;20284;-70
2023/07/11 09:43:47;;;;;;;6.72;2.50;;;;;;;;;;5025627;28;20724;-67
2023/07/11 09:46:16;;;;;;;4.53;2.15;;;;;;;;;;5027401;28;20186;-69
2023/07/11 09:48:44;;;;;;;10.30;2.35;;;;;;;;;;5026300;28;20528;-67
2023/07/11 09:51:24;;;;;;;4.15;2.10;;;;;;;;;;5029883;28;20401;-67
2023/07/11 09:53:55;;;;;;;7.00;2.25;;;;;;;;;;5031051;28;20194;-67
2023/07/11 09:56:24;;;;;;;4.60;2.58;;;;;;;;;;5031904;28;20194;-69
2023/07/11 09:58:59;;;;;;;8.40;2.45;;;;;;;;;;5024008;28;20190;-67
2023/07/11 10:01:27;;;;;;;3.90;2.13;;;;;;;;;;5017924;28;20213;-68
2023/07/11 10:03:55;;;;;;;5.78;2.33;;;;;;;;;;5027932;28;20272;-66
2023/07/11 10:06:29;;;;;;;4.82;2.28;;;;;;;;;;5028668;28;20253;-68
2023/07/11 10:08:55;;;;;;;5.05;2.28;;;;;;;;;;5027981;28;20190;-70
2023/07/11 10:11:21;;;;;;;7.07;2.42;;;;;;;;;;5028447;28;20227;-69
2023/07/11 10:13:47;;;;;;;5.10;2.40;;;;;;;;;;5027029;28;20190;-66
2023/07/11 10:16:20;;;;;;;7.00;2.10;;;;;;;;;;5017693;28;20544;-66
2023/07/11 10:18:46;;;;;;;5.72;2.42;;;;;;;;;;5029449;28;20280;-68
2023/07/11 10:21:18;;;;;;;9.68;2.80;;;;;;;;;;5023533;28;20294;-68
2023/07/11 10:23:46;;;;;;;7.72;2.30;;;;;;;;;;5029233;28;20482;-68
2023/07/11 10:26:24;;;;;;;6.68;2.33;;;;;;;;;;5021239;28;20316;-67
2023/07/11 10:29:07;;;;;;;4.53;2.63;;;;;;;;;;5026477;28;20204;-67
2023/07/11 10:31:39;;;;;;;7.15;2.40;;;;;;;;;;5029813;28;20186;-67
2023/07/11 10:34:19;;;;;;;5.15;2.30;;;;;;;;;;5028915;28;20264;-69
2023/07/11 10:36:48;;;;;;;4.78;2.00;;;;;;;;;;5026168;28;20197;-67
2023/07/11 10:39:24;;;;;;;5.03;2.10;;;;;;;;;;5013000;28;20474;-67
2023/07/11 10:42:05;;;;;;;6.00;2.00;;;;;;;;;;5019117;28;20233;-67
2023/07/11 10:44:40;;;;;;;7.50;2.53;;;;;;;;;;5026431;28;20665;-66
2023/07/11 10:47:08;;;;;;;6.45;2.00;;;;;;;;;;5024436;28;20492;-67
2023/07/11 10:49:41;;;;;;;5.53;2.08;;;;;;;;;;5020866;28;20213;-69
2023/07/11 10:52:23;;;;;;;3.97;2.15;;;;;;;;;;5029407;28;20245;-67
2023/07/11 10:55:13;;;;;;;5.53;2.30;;;;;;;;;;5030120;28;20273;-67
2023/07/11 10:57:45;;;;;;;4.82;2.20;;;;;;;;;;5029837;28;20183;-71
2023/07/11 11:00:16;;;;;;;2.78;1.95;;;;;;;;;;5026255;28;20660;-66
2023/07/11 11:03:06;;;;;;;5.13;2.28;;;;;;;;;;5029045;28;20693;-68
2023/07/11 11:05:48;;;;;;;5.53;2.00;;;;;;;;;;5025503;28;20285;-68
2023/07/11 11:08:34;;;;;;;5.00;2.03;;;;;;;;;;5026618;28;20264;-69
2023/07/11 11:11:42;;;;;;;7.32;2.03;;;;;;;;;;5021407;28;20253;-67
2023/07/11 11:14:31;;;;;;;7.30;2.17;;;;;;;;;;5016646;28;20205;-68
2023/07/11 11:17:19;;;;;;;7.07;2.10;;;;;;;;;;5017872;28;20645;-68
2023/07/11 11:20:05;;;;;;;7.18;2.60;;;;;;;;;;5022673;28;20186;-66
2023/07/11 11:22:45;;;;;;;10.15;2.60;;;;;;;;;;5020730;28;20616;-67
2023/07/11 11:25:25;;;;;;;8.70;2.63;;;;;;;;;;5025944;28;21214;-67
2023/07/11 11:28:21;;;;;;;6.28;2.50;;;;;;;;;;5023811;28;20201;-66
2023/07/11 11:30:57;;;;;;;5.53;2.50;;;;;;;;;;5021649;28;20749;-67
2023/07/11 11:33:42;;;;;;;4.68;2.30;;;;;;;;;;5027433;28;20564;-65
2023/07/11 11:36:11;;;;;;;5.03;2.20;;;;;;;;;;5025156;28;20203;-68
2023/07/11 11:39:19;;;;;;;7.97;2.50;;;;;;;;;;5026575;28;20190;-68
2023/07/11 11:41:54;;;;;;;8.52;2.25;;;;;;;;;;4996844;28;20334;-68
2023/07/11 11:44:43;;;;;;;4.55;2.03;;;;;;;;;;5021688;28;20190;-65
2023/07/11 11:47:10;;;;;;;6.93;2.40;;;;;;;;;;5028444;28;20189;-68
2023/07/11 11:49:38;;;;;;;4.88;2.47;;;;;;;;;;5027680;28;20501;-67
2023/07/11 11:52:05;;;;;;;5.07;2.20;;;;;;;;;;5029059;28;20189;-69
2023/07/11 11:54:42;;;;;;;6.53;2.28;;;;;;;;;;5028505;28;20285;-66
2023/07/11 11:57:17;;;;;;;5.28;2.50;;;;;;;;;;5029222;28;20264;-66
2023/07/11 11:59:44;;;;;;;5.20;2.28;;;;;;;;;;5029217;28;20217;-68
2023/07/11 12:02:16;;;;;;;6.60;2.47;;;;;;;;;;5028760;28;20221;-67
2023/07/11 12:04:57;;;;;;;6.57;2.55;;;;;;;;;;5026931;28;20198;-67
2023/07/11 12:07:30;;;;;;;4.53;2.33;;;;;;;;;;5024922;28;20193;-69
2023/07/11 12:09:56;;;;;;;7.13;2.15;;;;;;;;;;5022297;28;20189;-69
2023/07/11 12:12:22;;;;;;;5.22;2.38;;;;;;;;;;5021522;28;20445;-67
2023/07/11 12:14:54;;;;;;;5.07;2.28;;;;;;;;;;5028494;28;20200;-67
2023/07/11 12:17:29;;;;;;;9.45;2.25;;;;;;;;;;5029032;28;20606;-69
2023/07/11 12:20:00;;;;;;;4.72;2.45;;;;;;;;;;5024535;28;20284;-66
2023/07/11 12:22:29;;;;;;;9.13;2.58;;;;;;;;;;5014289;28;20287;-67
2023/07/11 12:24:59;;;;;;;6.53;2.15;;;;;;;;;;5022116;28;20266;-69
2023/07/11 12:27:24;;;;;;;9.00;2.90;;;;;;;;;;5024927;28;20555;-68
2023/07/11 12:29:51;;;;;;;5.57;2.53;;;;;;;;;;5025763;28;20204;-69
2023/07/11 12:32:31;;;;;;;6.93;2.53;;;;;;;;;;5017977;28;20196;-67
2023/07/11 12:35:21;;;;;;;5.72;2.30;;;;;;;;;;5021034;28;20220;-68
2023/07/11 12:37:59;;;;;;;7.43;2.30;;;;;;;;;;5021173;28;20233;-67
2023/07/11 12:40:50;;;;;;;6.10;2.28;;;;;;;;;;5024514;28;20272;-70
2023/07/11 12:43:22;;;;;;;9.38;2.30;;;;;;;;;;5023092;28;20243;-67
2023/07/11 12:45:54;;;;;;;7.55;2.40;;;;;;;;;;5027145;28;20246;-67
2023/07/11 12:48:24;;;;;;;6.22;2.03;;;;;;;;;;5025848;28;20668;-68
2023/07/11 12:50:52;;;;;;;5.20;2.28;;;;;;;;;;5027778;28;20189;-67
2023/07/11 12:53:18;;;;;;;5.13;2.03;;;;;;;;;;5021263;28;20265;-69
2023/07/11 12:55:49;;;;;;;3.92;2.30;;;;;;;;;;5018815;28;20555;-67
2023/07/11 12:58:21;;;;;;;5.13;2.30;;;;;;;;;;5027529;28;20220;-70
2023/07/11 13:00:48;;;;;;;6.80;2.53;;;;;;;;;;5027489;28;20689;-69
2023/07/11 13:03:40;;;;;;;10.82;2.40;;;;;;;;;;5022951;28;20205;-68
2023/07/11 13:06:25;;;;;;;5.13;2.30;;;;;;;;;;5021996;28;20228;-67
2023/07/11 13:08:52;;;;;;;11.05;2.38;;;;;;;;;;5020628;28;20400;-69
2023/07/11 13:11:21;;;;;;;7.20;2.22;;;;;;;;;;5025087;28;20573;-67
2023/07/11 13:13:46;;;;;;;11.68;2.75;;;;;;;;;;5023508;28;20209;-68
2023/07/11 13:16:12;;;;;;;6.75;2.40;;;;;;;;;;5032530;28;20208;-69
2023/07/11 13:18:44;;;;;;;10.75;2.80;;;;;;;;;;5026066;28;20206;-69
2023/07/11 13:21:09;;;;;;;12.20;2.67;;;;;;;;;;5023088;28;20239;-68
2023/07/11 13:23:37;;;;;;;5.97;2.13;;;;;;;;;;5029803;28;20189;-67
2023/07/11 13:26:20;;;;;;;4.78;2.10;;;;;;;;;;5023681;28;20197;-66
2023/07/11 13:28:57;;;;;;;5.28;2.55;;;;;;;;;;5026433;28;20201;-67
2023/07/11 13:31:25;;;;;;;7.63;2.20;;;;;;;;;;5030645;28;20264;-67
2023/07/11 13:34:09;;;;;;;5.88;2.50;;;;;;;;;;5025057;28;20748;-66
2023/07/11 13:36:35;;;;;;;6.30;2.50;;;;;;;;;;5030981;28;20190;-66
2023/07/11 13:39:12;;;;;;;5.53;2.47;;;;;;;;;;5021961;28;20682;-68
2023/07/11 13:41:41;;;;;;;3.58;2.17;;;;;;;;;;5019403;28;20240;-68
2023/07/11 13:44:22;;;;;;;7.28;2.47;;;;;;;;;;5024031;28;20190;-67
2023/07/11 13:46:48;;;;;;;2.92;2.13;;;;;;;;;;5020997;28;20283;-68
2023/07/11 13:49:19;;;;;;;6.00;2.80;;;;;;;;;;5021876;28;20198;-67
2023/07/11 13:51:44;;;;;;;5.00;2.50;;;;;;;;;;5028916;28;20653;-67
2023/07/11 13:54:27;;;;;;;4.65;2.60;;;;;;;;;;5027125;28;20190;-66
2023/07/11 13:56:52;;;;;;;4.75;2.28;;;;;;;;;;5030359;28;20197;-67
2023/07/11 13:59:17;;;;;;;4.20;2.78;;;;;;;;;;4333601;28;10000735;-66
2023/07/11 14:01:43;;;;;;;7.57;2.35;;;;;;;;;;5023875;28;20613;-67
2023/07/11 14:04:17;;;;;;;6.65;2.40;;;;;;;;;;5026618;28;20576;-66
2023/07/11 14:06:42;;;;;;;5.82;2.55;;;;;;;;;;5023074;28;20696;-67
2023/07/11 14:09:11;;;;;;;2.92;2.15;;;;;;;;;;5026093;28;20193;-67
2023/07/11 14:11:36;;;;;;;5.53;2.72;;;;;;;;;;5027830;28;20184;-70
2023/07/11 14:14:11;;;;;;;8.90;2.95;;;;;;;;;;5024768;28;20216;-68
2023/07/11 14:16:36;;;;;;;4.18;2.50;;;;;;;;;;5027362;28;20189;-68
2023/07/11 14:19:03;;;;;;;4.55;2.47;;;;;;;;;;5026170;28;20259;-68
2023/07/11 14:21:29;;;;;;;7.70;2.72;;;;;;;;;;5024067;28;20297;-68
2023/07/11 14:23:54;;;;;;;7.45;2.65;;;;;;;;;;5024573;28;20209;-67
2023/07/11 14:26:20;;;;;;;6.10;2.90;;;;;;;;;;5026848;28;20197;-67
2023/07/11 14:28:45;;;;;;;6.82;2.92;;;;;;;;;;5025222;28;20284;-69
2023/07/11 14:31:19;;;;;;;9.82;2.75;;;;;;;;;;5023180;28;20200;-69
2023/07/11 14:33:45;;;;;;;4.00;2.60;;;;;;;;;;5022448;28;20198;-68
2023/07/11 14:36:10;;;;;;;7.20;2.72;;;;;;;;;;5027066;28;20181;-66
2023/07/11 14:38:35;;;;;;;5.05;2.35;;;;;;;;;;5025104;28;20280;-67
2023/07/11 14:41:01;;;;;;;6.30;2.70;;;;;;;;;;5022432;28;20245;-66
2023/07/11 14:43:26;;;;;;;7.18;2.83;;;;;;;;;;5025967;28;20684;-68
2023/07/11 14:45:52;;;;;;;5.82;2.50;;;;;;;;;;5023703;28;20207;-66
2023/07/11 14:48:21;;;;;;;4.35;2.55;;;;;;;;;;5024954;28;20208;-69
2023/07/11 14:50:48;;;;;;;4.22;2.70;;;;;;;;;;5024984;28;20189;-68
2023/07/11 14:53:39;;;;;;;5.75;2.60;;;;;;;;;;5025593;28;20720;-67